Time;durP1;ratioP1;P1;durP2;ratioP2;P2;SDS_P1;SDS_P2;PMS_P1;PMS_P2;Temp;Humidity;BMP_temperature;BMP_pressure;BME280_temperature;BME280_humidity;BME280_pressure;Samples;Min_cycle;Max_cycle;Signal;HPM_P1;HPM_P2
2022/07/23 00:01:41;;;;;;;;;;;;;;;24.58;53.67;99896.94;6272515;28;19925;-74
2022/07/23 00:04:41;;;;;;;;;;;;;;;24.53;51.70;99900.19;6238959;28;19997;-74
2022/07/23 00:07:42;;;;;;;;;;;;;;;24.46;52.47;99899.25;6255413;28;19920;-74
2022/07/23 00:10:43;;;;;;;;;;;;;;;24.39;53.55;99895.69;6273204;28;20019;-74
2022/07/23 00:13:44;;;;;;;;;;;;;;;24.28;52.96;99892.50;6255222;28;19927;-74
2022/07/23 00:16:45;;;;;;;;;;;;;;;24.23;53.45;99884.22;6272893;28;19921;-74
2022/07/23 00:19:45;;;;;;;;;;;;;;;24.23;55.76;99884.22;6238535;28;19928;-74
2022/07/23 00:22:47;;;;;;;;;;;;;;;24.21;52.31;99888.09;6254582;28;20016;-74
2022/07/23 00:25:48;;;;;;;;;;;;;;;24.12;52.21;99895.38;6254643;28;20336;-74
2022/07/23 00:28:49;;;;;;;;;;;;;;;23.94;52.23;99893.88;6255045;28;20279;-74
2022/07/23 00:31:50;;;;;;;;;;;;;;;23.61;53.86;99892.56;6272895;28;19920;-74
2022/07/23 00:34:50;;;;;;;;;;;;;;;23.79;54.57;99897.59;6272588;28;19927;-70
2022/07/23 00:37:51;;;;;;;;;;;;;;;23.88;56.56;99894.63;6254804;28;19921;-74
2022/07/23 00:40:52;;;;;;;;;;;;;;;23.79;56.15;99884.28;6254653;28;19921;-74
2022/07/23 00:43:52;;;;;;;;;;;;;;;23.74;55.41;99892.75;6254861;28;19955;-74
2022/07/23 00:46:57;;;;;;;;;;;;;;;23.68;56.34;99888.16;6238330;28;19928;-74
2022/07/23 00:49:58;;;;;;;;;;;;;;;23.65;55.87;99894.69;6272583;28;19921;-74
2022/07/23 00:52:58;;;;;;;;;;;;;;;23.64;57.33;99897.53;6254570;28;19952;-74
2022/07/23 00:55:59;;;;;;;;;;;;;;;23.62;56.89;99900.38;6238183;28;19998;-70
2022/07/23 00:59:00;;;;;;;;;;;;;;;23.56;57.39;99887.81;6254688;28;19921;-69
2022/07/23 01:02:01;;;;;;;;;;;;;;;23.58;57.39;99888.44;6254752;28;20015;-69
2022/07/23 01:05:02;;;;;;;;;;;;;;;23.56;56.51;99890.47;6253951;28;19921;-69
2022/07/23 01:08:03;;;;;;;;;;;;;;;23.54;56.32;99881.84;6255159;28;20382;-70
2022/07/23 01:11:04;;;;;;;;;;;;;;;23.39;56.61;99884.47;6258941;28;19971;-69
2022/07/23 01:14:08;;;;;;;;;;;;;;;23.31;55.53;99879.22;6276337;28;19927;-69
2022/07/23 01:17:09;;;;;;;;;;;;;;;23.33;54.51;99885.19;6258653;28;19928;-69
2022/07/23 01:20:10;;;;;;;;;;;;;;;23.30;54.55;99880.22;6258743;28;20264;-74
2022/07/23 01:23:10;;;;;;;;;;;;;;;23.18;54.53;99882.47;6258508;28;19920;-74
2022/07/23 01:26:11;;;;;;;;;;;;;;;22.94;54.27;99883.50;6258558;28;20375;-74
2022/07/23 01:29:14;;;;;;;;;;;;;;;23.03;53.89;99884.28;6258689;28;19921;-74
2022/07/23 01:32:15;;;;;;;;;;;;;;;23.03;53.63;99884.28;6276053;28;20237;-74
2022/07/23 01:35:15;;;;;;;;;;;;;;;23.02;52.81;99886.13;6258238;28;19924;-74
2022/07/23 01:38:16;;;;;;;;;;;;;;;23.04;52.33;99886.78;6275969;28;20002;-74
2022/07/23 01:41:17;;;;;;;;;;;;;;;23.05;52.29;99885.75;6258364;28;20287;-74
2022/07/23 01:44:18;;;;;;;;;;;;;;;22.97;51.61;99880.47;6275961;28;20364;-74
2022/07/23 01:47:19;;;;;;;;;;;;;;;23.03;53.29;99877.13;6241616;28;19999;-74
2022/07/23 01:50:20;;;;;;;;;;;;;;;23.03;57.62;99876.31;6258071;28;19959;-74
2022/07/23 01:53:21;;;;;;;;;;;;;;;23.01;55.06;99881.81;6275518;28;20282;-69
2022/07/23 01:56:21;;;;;;;;;;;;;;;22.92;51.61;99874.88;6241358;28;20295;-69
2022/07/23 01:59:22;;;;;;;;;;;;;;;22.91;51.80;99870.53;6241557;28;20019;-74
2022/07/23 02:02:23;;;;;;;;;;;;;;;22.95;54.34;99866.53;6241227;28;20019;-74
2022/07/23 02:05:24;;;;;;;;;;;;;;;22.91;52.92;99873.19;6257764;28;19971;-69
2022/07/23 02:08:24;;;;;;;;;;;;;;;22.85;53.09;99866.75;6241604;28;20016;-69
2022/07/23 02:11:25;;;;;;;;;;;;;;;22.66;52.74;99867.25;6232934;28;20372;-69
2022/07/23 02:14:26;;;;;;;;;;;;;;;22.76;53.33;99869.66;6250227;28;19921;-74
2022/07/23 02:17:27;;;;;;;;;;;;;;;22.77;54.57;99868.66;6250348;28;19921;-74
2022/07/23 02:20:28;;;;;;;;;;;;;;;22.77;55.99;99871.31;6232322;28;19964;-69
2022/07/23 02:23:28;;;;;;;;;;;;;;;22.72;57.44;99862.03;6199994;28;19920;-70
2022/07/23 02:26:34;;;;;;;;;;;;;;;22.66;58.40;99857.41;6232593;28;19921;-70
2022/07/23 02:29:35;;;;;;;;;;;;;;;22.66;59.65;99860.09;6270578;28;19927;-74
2022/07/23 02:32:35;;;;;;;;;;;;;;;22.50;62.26;99865.50;6240539;28;19925;-74
2022/07/23 02:35:36;;;;;;;;;;;;;;;22.46;60.60;99869.50;6275166;28;20424;-74
2022/07/23 02:38:39;;;;;;;;;;;;;;;22.39;59.13;99869.41;6274735;28;19935;-74
2022/07/23 02:41:40;;;;;;;;;;;;;;;22.36;61.86;99866.25;6257000;28;20275;-74
2022/07/23 02:44:40;;;;;;;;;;;;;;;22.25;60.17;99876.25;6240311;28;19971;-69
2022/07/23 02:47:41;;;;;;;;;;;;;;;22.19;60.74;99871.63;6274488;28;19928;-69
2022/07/23 02:50:42;;;;;;;;;;;;;;;22.17;60.74;99875.47;6274237;28;19920;-69
2022/07/23 02:53:43;;;;;;;;;;;;;;;22.10;61.44;99875.31;6256469;28;20017;-69
2022/07/23 02:56:43;;;;;;;;;;;;;;;22.11;61.22;99877.81;6256131;28;19921;-69
2022/07/23 02:59:44;;;;;;;;;;;;;;;22.05;60.85;99878.50;6240009;28;20011;-69
2022/07/23 03:02:45;;;;;;;;;;;;;;;22.03;60.00;99879.66;6256272;28;19932;-74
2022/07/23 03:05:45;;;;;;;;;;;;;;;22.03;59.45;99882.31;6273845;28;19970;-74
2022/07/23 03:08:46;;;;;;;;;;;;;;;21.99;58.57;99889.81;6233466;28;20328;-74
2022/07/23 03:11:47;;;;;;;;;;;;;;;21.99;58.64;99895.13;6233853;28;19929;-74
2022/07/23 03:14:48;;;;;;;;;;;;;;;21.95;57.98;99893.81;6243794;28;19983;-74
2022/07/23 03:17:49;;;;;;;;;;;;;;;21.90;58.21;99888.19;6255081;28;19921;-74
2022/07/23 03:20:50;;;;;;;;;;;;;;;21.93;57.71;99893.16;6274499;28;19921;-69
2022/07/23 03:23:51;;;;;;;;;;;;;;;21.90;58.06;99896.16;6274197;28;19920;-69
2022/07/23 03:26:51;;;;;;;;;;;;;;;21.89;58.98;99897.16;6240027;28;20015;-69
2022/07/23 03:29:53;;;;;;;;;;;;;;;21.87;59.14;99888.53;6256389;28;20297;-74
2022/07/23 03:32:53;;;;;;;;;;;;;;;21.91;60.47;99887.19;6273442;28;19971;-74
2022/07/23 03:35:54;;;;;;;;;;;;;;;21.91;61.16;99889.84;6256241;28;19921;-74
2022/07/23 03:38:55;;;;;;;;;;;;;;;21.87;59.43;99885.88;6237372;28;20295;-74
2022/07/23 03:41:56;;;;;;;;;;;;;;;21.90;60.32;99886.34;6252883;28;19920;-74
2022/07/23 03:44:59;;;;;;;;;;;;;;;21.93;60.79;99891.31;6273820;28;19974;-70
2022/07/23 03:47:59;;;;;;;;;;;;;;;21.90;63.08;99883.69;6256328;28;20007;-69
2022/07/23 03:51:00;;;;;;;;;;;;;;;21.94;63.91;99892.97;6255917;28;19927;-69
2022/07/23 03:54:01;;;;;;;;;;;;;;;22.00;64.19;99887.97;6255829;28;19921;-69
2022/07/23 03:57:01;;;;;;;;;;;;;;;21.99;64.59;99889.81;6266747;28;19925;-70
2022/07/23 04:00:04;;;;;;;;;;;;;;;22.02;63.24;99885.97;6248775;28;19929;-74
2022/07/23 04:03:05;;;;;;;;;;;;;;;22.08;66.90;99894.09;6248896;28;19928;-73
2022/07/23 04:06:06;;;;;;;;;;;;;;;22.08;62.77;99887.94;6214488;28;19929;-69
2022/07/23 04:09:09;;;;;;;;;;;;;;;22.17;64.35;99899.38;6265446;28;20332;-69
2022/07/23 04:12:10;;;;;;;;;;;;;;;22.21;63.07;99900.69;6272433;28;20019;-69
2022/07/23 04:15:11;;;;;;;;;;;;;;;22.28;62.33;99899.03;6271214;28;19928;-69
2022/07/23 04:18:12;;;;;;;;;;;;;;;22.32;61.85;99893.19;6230289;28;19925;-69
2022/07/23 04:21:12;;;;;;;;;;;;;;;22.37;61.48;99897.16;6230107;28;19928;-70
2022/07/23 04:24:13;;;;;;;;;;;;;;;22.45;61.24;99891.81;6213620;28;19952;-74
2022/07/23 04:27:14;;;;;;;;;;;;;;;22.52;60.92;99882.94;6229892;28;20051;-74
2022/07/23 04:30:14;;;;;;;;;;;;;;;22.58;60.23;99877.94;6231455;28;19921;-74
2022/07/23 04:33:16;;;;;;;;;;;;;;;22.66;60.46;99889.34;6254448;28;19925;-74
2022/07/23 04:36:16;;;;;;;;;;;;;;;22.75;60.27;99887.44;6237753;28;19927;-74
2022/07/23 04:39:17;;;;;;;;;;;;;;;22.84;60.50;99885.56;6271975;28;19928;-74
2022/07/23 04:42:17;;;;;;;;;;;;;;;22.88;59.68;99886.88;6237609;28;19920;-74
2022/07/23 04:45:18;;;;;;;;;;;;;;;22.94;60.06;99881.66;6271099;28;19925;-74
2022/07/23 04:48:19;;;;;;;;;;;;;;;22.68;60.67;99883.84;6236759;28;19921;-74
2022/07/23 04:51:19;;;;;;;;;;;;;;;22.66;62.64;99876.03;6261649;28;19927;-74
2022/07/23 04:54:20;;;;;;;;;;;;;;;22.72;61.88;99878.00;6270710;28;19924;-74
2022/07/23 04:57:21;;;;;;;;;;;;;;;22.81;60.87;99880.59;6260935;28;19956;-69
2022/07/23 05:00:22;;;;;;;;;;;;;;;22.99;61.27;99890.94;6248526;28;19968;-74
2022/07/23 05:03:25;;;;;;;;;;;;;;;23.04;62.19;99892.09;6254443;28;19921;-69
2022/07/23 05:06:25;;;;;;;;;;;;;;;;;;6268116;28;19925;-74
2022/07/23 05:09:26;;;;;;;;;;;;;;;23.20;61.95;99882.31;6229414;28;19943;-70
2022/07/23 05:12:27;;;;;;;;;;;;;;;23.29;62.00;99883.91;6235439;28;19921;-69
2022/07/23 05:15:30;;;;;;;;;;;;;;;23.34;62.10;99887.66;6258284;28;19966;-74
2022/07/23 05:18:33;;;;;;;;;;;;;;;23.46;60.89;99887.25;6239613;28;19943;-74
2022/07/23 05:21:36;;;;;;;;;;;;;;;23.53;61.74;99885.50;6270547;28;19927;-70
2022/07/23 05:24:36;;;;;;;;;;;;;;;23.64;59.35;99889.53;6271540;28;20383;-70
2022/07/23 05:27:38;;;;;;;;;;;;;;;23.73;61.36;99891.13;6271541;28;19920;-70
2022/07/23 05:30:38;;;;;;;;;;;;;;;23.79;59.53;99886.94;6269343;28;19963;-75
2022/07/23 05:33:39;;;;;;;;;;;;;;;23.88;60.96;99883.16;6229214;28;20379;-75
2022/07/23 05:36:39;;;;;;;;;;;;;;;23.99;58.92;99896.03;6245741;28;19960;-75
2022/07/23 05:39:41;;;;;;;;;;;;;;;24.10;59.54;99892.88;6232334;28;20273;-75
2022/07/23 05:42:42;;;;;;;;;;;;;;;24.24;58.09;99898.38;6221022;28;19921;-75
2022/07/23 05:45:42;;;;;;;;;;;;;;;24.37;58.58;99895.06;6220954;28;20265;-75
2022/07/23 05:48:45;;;;;;;;;;;;;;;24.53;58.32;99908.19;6221962;28;19929;-75
2022/07/23 05:51:46;;;;;;;;;;;;;;;24.65;57.57;99908.53;6220823;28;20299;-70
2022/07/23 05:54:50;;;;;;;;;;;;;;;24.76;54.04;99905.34;6206414;28;19932;-71
2022/07/23 05:57:51;;;;;;;;;;;;;;;24.98;55.41;99903.53;6226292;28;19925;-70
2022/07/23 06:00:54;;;;;;;;;;;;;;;25.12;53.07;99910.63;6226333;28;19921;-70
2022/07/23 06:03:55;;;;;;;;;;;;;;;25.33;52.76;99906.31;6226241;28;19928;-76
2022/07/23 06:06:56;;;;;;;;;;;;;;;25.56;50.07;99899.91;6224874;28;19921;-76
2022/07/23 06:09:56;;;;;;;;;;;;;;;25.70;50.55;99904.31;6224820;28;19928;-76
2022/07/23 06:12:57;;;;;;;;;;;;;;;25.92;48.97;99908.59;6225929;28;19922;-76
2022/07/23 06:15:58;;;;;;;;;;;;;;;26.06;46.39;99905.97;6226110;28;20283;-76
2022/07/23 06:18:59;;;;;;;;;;;;;;;26.22;45.18;99904.84;6224671;28;19967;-76
2022/07/23 06:22:00;;;;;;;;;;;;;;;26.37;45.77;99921.53;6226623;28;20003;-76
2022/07/23 06:25:01;;;;;;;;;;;;;;;26.55;43.06;99915.63;6250433;28;19921;-76
2022/07/23 06:28:02;;;;;;;;;;;;;;;26.76;43.10;99921.91;6248895;28;19928;-76
2022/07/23 06:31:05;;;;;;;;;;;;;;;26.86;43.61;99915.13;6249040;28;20386;-77
2022/07/23 06:34:06;;;;;;;;;;;;;;;26.98;39.98;99917.22;6249985;28;19925;-76
2022/07/23 06:37:07;;;;;;;;;;;;;;;27.18;39.88;99912.69;6239994;28;19921;-77
2022/07/23 06:40:08;;;;;;;;;;;;;;;27.42;40.69;99921.16;6219274;28;19922;-76
2022/07/23 06:43:09;;;;;;;;;;;;;;;27.60;41.75;99913.31;6237352;28;19928;-70
2022/07/23 06:46:09;;;;;;;;;;;;;;;27.78;39.48;99907.31;6235492;28;20004;-70
2022/07/23 06:49:13;;;;;;;;;;;;;;;27.87;39.03;99915.97;6249773;28;19928;-70
2022/07/23 06:52:13;;;;;;;;;;;;;;;27.95;38.22;99915.75;6249499;28;20442;-70
2022/07/23 06:55:14;;;;;;;;;;;;;;;28.14;36.85;99920.19;6249637;28;19921;-71
2022/07/23 06:58:15;;;;;;;;;;;;;;;28.34;38.00;99911.28;6248249;28;19956;-70
2022/07/23 07:01:16;;;;;;;;;;;;;;;28.57;42.93;99918.81;6231864;28;19982;-70
2022/07/23 07:04:16;;;;;;;;;;;;;;;28.71;37.65;99919.56;6249813;28;19925;-71
2022/07/23 07:07:17;;;;;;;;;;;;;;;28.94;38.47;99913.63;6261465;28;19927;-70
2022/07/23 07:10:18;;;;;;;;;;;;;;;29.07;38.14;99913.53;6231704;28;19975;-70
2022/07/23 07:13:18;;;;;;;;;;;;;;;29.37;37.16;99917.47;6262488;28;19921;-70
2022/07/23 07:16:20;;;;;;;;;;;;;;;29.59;35.26;99917.88;6272557;28;19927;-70
2022/07/23 07:19:21;;;;;;;;;;;;;;;29.77;36.09;99917.09;6263736;28;19921;-68
2022/07/23 07:22:21;;;;;;;;;;;;;;;29.64;33.53;99913.47;6254486;28;19943;-68
2022/07/23 07:25:22;;;;;;;;;;;;;;;30.06;35.73;99919.06;6215023;28;19921;-67
2022/07/23 07:28:23;;;;;;;;;;;;;;;30.29;35.41;99913.03;6230925;28;19925;-68
2022/07/23 07:31:24;;;;;;;;;;;;;;;30.47;33.45;99912.16;6247585;28;20394;-68
2022/07/23 07:34:25;;;;;;;;;;;;;;;30.66;34.30;99918.31;6248477;28;19921;-74
2022/07/23 07:37:26;;;;;;;;;;;;;;;30.82;31.98;99921.41;6267460;28;19928;-74
2022/07/23 07:40:27;;;;;;;;;;;;;;;30.96;33.41;99922.88;6255288;28;19975;-74
2022/07/23 07:43:28;;;;;;;;;;;;;;;30.98;32.60;99928.84;6238097;28;19920;-75
2022/07/23 07:46:30;;;;;;;;;;;;;;;31.20;33.09;99917.53;6252065;28;20364;-75
2022/07/23 07:49:31;;;;;;;;;;;;;;;31.47;35.05;99921.44;6230936;28;19921;-68
2022/07/23 07:52:31;;;;;;;;;;;;;;;31.63;33.52;99919.94;6268950;28;19944;-68
2022/07/23 07:55:34;;;;;;;;;;;;;;;31.76;31.21;99923.44;6238480;28;20391;-69
2022/07/23 07:58:35;;;;;;;;;;;;;;;31.89;31.02;99917.78;6263501;28;20319;-69
2022/07/23 08:01:36;;;;;;;;;;;;;;;32.08;31.26;99915.75;6272477;28;19924;-70
2022/07/23 08:04:37;;;;;;;;;;;;;;;32.21;30.63;99906.59;6272618;28;19928;-75
2022/07/23 08:07:39;;;;;;;;;;;;;;;32.26;32.48;99904.78;6272438;28;20015;-75
2022/07/23 08:10:40;;;;;;;;;;;;;;;32.46;30.73;99914.38;6271282;28;19920;-76
2022/07/23 08:13:41;;;;;;;;;;;;;;;32.57;28.95;99905.41;6272440;28;19924;-76
2022/07/23 08:16:42;;;;;;;;;;;;;;;32.59;29.62;99905.16;6270678;28;20333;-76
2022/07/23 08:19:42;;;;;;;;;;;;;;;32.88;30.25;99911.34;6254684;28;19927;-75
2022/07/23 08:22:45;;;;;;;;;;;;;;;32.80;28.30;99900.94;6271121;28;19921;-76
2022/07/23 08:25:47;;;;;;;;;;;;;;;33.08;28.41;99908.22;6272273;28;19932;-76
2022/07/23 08:28:48;;;;;;;;;;;;;;;33.46;29.55;99903.91;6270922;28;19924;-76
2022/07/23 08:31:49;;;;;;;;;;;;;;;33.67;27.50;99905.88;6271369;28;19920;-76
2022/07/23 08:34:49;;;;;;;;;;;;;;;33.89;28.70;99903.19;6270758;28;19921;-76
2022/07/23 08:37:50;;;;;;;;;;;;;;;34.04;28.10;99896.34;6272037;28;19921;-76
2022/07/23 08:40:53;;;;;;;;;;;;;;;34.24;26.17;99891.16;6270568;28;20044;-69
2022/07/23 08:43:54;;;;;;;;;;;;;;;34.41;27.03;99892.97;6272041;28;20252;-75
2022/07/23 08:46:57;;;;;;;;;;;;;;;34.69;25.56;99890.03;6254319;28;19925;-76
2022/07/23 08:49:58;;;;;;;;;;;;;;;34.86;26.36;99889.91;6254000;28;20046;-70
2022/07/23 08:53:00;;;;;;;;;;;;;;;35.03;25.42;99887.06;6253688;28;20041;-69
2022/07/23 08:56:05;;;;;;;;;;;;;;;35.23;25.46;99889.16;6260847;28;19927;-70
2022/07/23 08:59:05;;;;;;;;;;;;;;;35.31;27.12;99885.09;6250299;28;19920;-76
2022/07/23 09:02:07;;;;;;;;;;;;;;;35.43;23.31;99880.31;6270579;28;19967;-75
2022/07/23 09:05:10;;;;;;;;;;;;;;;35.67;22.04;99888.06;6265773;28;19927;-76
2022/07/23 09:08:11;;;;;;;;;;;;;;;35.96;23.17;99877.59;6246986;28;19960;-76
2022/07/23 09:11:16;;;;;;;;;;;;;;;36.05;23.05;99880.63;6255789;28;20275;-76
2022/07/23 09:14:35;;;;;;;;;;;;;;;36.19;23.59;99880.97;6253715;28;19921;-71
2022/07/23 09:17:41;;;;;;;;;;;;;;;36.38;21.94;99870.41;6232391;28;20288;-76
2022/07/23 09:20:45;;;;;;;;;;;;;;;36.48;22.04;99879.38;6238820;28;19921;-76
2022/07/23 09:23:46;;;;;;;;;;;;;;;36.65;21.33;99879.19;6247801;28;19921;-76
2022/07/23 09:26:47;;;;;;;;;;;;;;;36.80;21.20;99870.22;6250828;28;19975;-76
2022/07/23 09:29:56;;;;;;;;;;;;;;;36.77;20.94;99865.31;6214932;28;19979;-70
2022/07/23 09:33:06;;;;;;;;;;;;;;;37.15;21.95;99871.31;6233689;28;19931;-70
2022/07/23 09:36:09;;;;;;;;;;;;;;;37.33;21.44;99864.44;6264746;28;19921;-70
2022/07/23 09:39:11;;;;;;;;;;;;;;;37.40;19.83;99851.38;6258555;28;19931;-70
2022/07/23 09:42:22;;;;;;;;;;;;;;;37.60;20.78;99853.25;6235741;28;19921;-70
2022/07/23 09:45:23;;;;;;;;;;;;;;;37.83;22.00;99857.22;6251142;28;19928;-71
2022/07/23 09:48:24;;;;;;;;;;;;;;;37.78;20.22;99857.25;6205206;28;19921;-76
2022/07/23 09:51:28;;;;;;;;;;;;;;;37.93;19.90;99855.53;6233498;28;20406;-76
2022/07/23 09:54:33;;;;;;;;;;;;;;;37.82;20.55;99857.50;6266896;28;20260;-70
2022/07/23 09:57:34;;;;;;;;;;;;;;;38.08;21.61;99856.31;6275689;28;19925;-70
2022/07/23 10:00:35;;;;;;;;;;;;;;;38.26;21.63;99854.00;6251210;28;20275;-76
2022/07/23 10:03:37;;;;;;;;;;;;;;;38.44;21.27;99847.09;6250922;28;19924;-76
2022/07/23 10:06:43;;;;;;;;;;;;;;;38.29;21.49;99843.38;6233496;28;19928;-77
2022/07/23 10:09:45;;;;;;;;;;;;;;;38.25;22.79;99839.59;6250758;28;19921;-76
2022/07/23 10:15:55;;;;;;;;;;;;;;;38.79;21.04;99837.03;6250576;28;19928;-76
2022/07/23 10:18:56;;;;;;;;;;;;;;;38.88;20.09;99848.94;6232697;28;19925;-77
2022/07/23 10:22:02;;;;;;;;;;;;;;;38.84;20.80;99835.06;6250448;28;19921;-71
2022/07/23 10:25:04;;;;;;;;;;;;;;;38.88;19.70;99838.03;6265509;28;20291;-77
2022/07/23 10:28:20;;;;;;;;;;;;;;;38.49;19.04;99831.50;6250292;28;19928;-77
2022/07/23 10:31:39;;;;;;;;;;;;;;;38.75;20.54;99836.78;6250114;28;20010;-76
2022/07/23 10:34:42;;;;;;;;;;;;;;;38.81;20.39;99829.38;6250109;28;19963;-71
2022/07/23 10:37:45;;;;;;;;;;;;;;;38.11;20.02;99816.78;6250026;28;19959;-76
2022/07/23 10:40:59;;;;;;;;;;;;;;;38.22;22.34;99821.09;6244896;28;19993;-77
2022/07/23 10:44:09;;;;;;;;;;;;;;;38.90;20.68;99814.84;6225592;28;19920;-70
2022/07/23 10:50:21;;;;;;;;;;;;;;;39.23;19.74;99820.53;6249693;28;19921;-71
2022/07/23 10:53:21;;;;;;;;;;;;;;;39.27;18.17;99818.84;6249676;28;19947;-76
2022/07/23 10:56:42;;;;;;;;;;;;;;;39.28;18.88;99812.25;6215479;28;19921;-77
2022/07/23 11:00:13;;;;;;;;;;;;;;;39.27;19.92;99813.38;6231912;28;19921;-71
2022/07/23 11:03:40;;;;;;;;;;;;;;;39.25;19.67;99806.59;6220459;28;19921;-71
2022/07/23 11:07:00;;;;;;;;;;;;;;;39.48;18.63;99808.50;6215096;28;19960;-71
2022/07/23 11:10:03;;;;;;;;;;;;;;;38.75;18.62;99801.31;6195990;28;20384;-70
2022/07/23 11:13:22;;;;;;;;;;;;;;;38.20;20.13;99800.66;6249011;28;19921;-75
2022/07/23 11:16:23;;;;;;;;;;;;;;;39.17;19.52;99799.84;6235764;28;19979;-77
2022/07/23 11:19:24;;;;;;;;;;;;;;;39.17;17.03;99799.84;6238188;28;19928;-77
2022/07/23 11:22:35;;;;;;;;;;;;;;;39.17;16.21;99804.50;6247710;28;19954;-77
2022/07/23 11:25:35;;;;;;;;;;;;;;;39.67;17.60;99794.09;6248314;28;19928;-77
2022/07/23 11:28:36;;;;;;;;;;;;;;;39.45;18.56;99794.63;6238953;28;19921;-77
2022/07/23 11:31:37;;;;;;;;;;;;;;;39.83;16.69;99783.75;6242175;28;19947;-70
2022/07/23 11:34:37;;;;;;;;;;;;;;;39.48;17.13;99780.41;6249078;28;19921;-76
2022/07/23 11:37:39;;;;;;;;;;;;;;;38.95;18.07;99773.06;6209755;28;20011;-77
2022/07/23 11:40:41;;;;;;;;;;;;;;;39.44;17.73;99776.66;6223109;28;20379;-71
2022/07/23 11:43:42;;;;;;;;;;;;;;;39.42;16.57;99778.84;6238532;28;19921;-77
2022/07/23 11:46:53;;;;;;;;;;;;;;;38.67;16.62;99766.50;6247556;28;19967;-76
2022/07/23 11:49:58;;;;;;;;;;;;;;;39.47;17.91;99765.13;6248725;28;20206;-77
2022/07/23 11:52:59;;;;;;;;;;;;;;;39.92;18.22;99767.56;6247592;28;19960;-71
2022/07/23 11:56:07;;;;;;;;;;;;;;;40.05;17.40;99758.59;6240942;28;20016;-70
2022/07/23 11:59:09;;;;;;;;;;;;;;;40.18;17.58;99759.78;6234345;28;19921;-70
2022/07/23 12:02:12;;;;;;;;;;;;;;;40.14;16.84;99756.03;6238702;28;19921;-71
2022/07/23 12:05:13;;;;;;;;;;;;;;;40.40;17.85;99751.78;6247176;28;20004;-76
2022/07/23 12:08:14;;;;;;;;;;;;;;;40.36;16.62;99744.47;6247695;28;19928;-76
2022/07/23 12:11:14;;;;;;;;;;;;;;;39.49;16.75;99747.34;6248508;28;19921;-76
2022/07/23 12:14:15;;;;;;;;;;;;;;;39.92;17.38;99741.03;6246532;28;20355;-76
2022/07/23 12:17:16;;;;;;;;;;;;;;;40.15;18.08;99738.50;6230163;28;19921;-77
2022/07/23 12:20:21;;;;;;;;;;;;;;;40.25;18.28;99746.53;6230091;28;19921;-77
2022/07/23 12:23:24;;;;;;;;;;;;;;;40.44;17.91;99728.22;6213607;28;19925;-77
2022/07/23 12:26:25;;;;;;;;;;;;;;;40.41;17.78;99722.53;6247642;28;19921;-77
2022/07/23 12:29:33;;;;;;;;;;;;;;;40.35;16.96;99724.53;6247503;28;20372;-77
2022/07/23 12:32:34;;;;;;;;;;;;;;;39.92;17.11;99724.66;6229573;28;19921;-77
2022/07/23 12:35:41;;;;;;;;;;;;;;;39.64;17.19;99720.94;6247520;28;19927;-70
2022/07/23 12:38:43;;;;;;;;;;;;;;;39.87;17.05;99713.84;6247267;28;20338;-70
2022/07/23 12:41:51;;;;;;;;;;;;;;;39.67;18.49;99714.91;6219937;28;19927;-70
2022/07/23 12:45:07;;;;;;;;;;;;;;;39.64;17.14;99705.41;6231273;28;19925;-77
2022/07/23 12:48:08;;;;;;;;;;;;;;;39.33;18.25;99695.97;6226625;28;20294;-70
2022/07/23 12:51:21;;;;;;;;;;;;;;;39.89;19.60;99708.88;6228817;28;19925;-70
2022/07/23 12:54:27;;;;;;;;;;;;;;;39.78;17.64;99702.72;6214266;28;20011;-77
2022/07/23 12:57:46;;;;;;;;;;;;;;;39.79;17.44;99693.44;6215546;28;20287;-70
2022/07/23 13:00:58;;;;;;;;;;;;;;;39.51;18.66;99683.47;6247039;28;19971;-71
2022/07/23 13:04:02;;;;;;;;;;;;;;;39.15;17.42;99689.41;6231578;28;20364;-70
2022/07/23 13:07:03;;;;;;;;;;;;;;;39.44;18.80;99684.66;6252232;28;19927;-70
2022/07/23 13:10:04;;;;;;;;;;;;;;;39.30;17.27;99679.09;6218155;28;19921;-70
2022/07/23 13:13:09;;;;;;;;;;;;;;;39.23;16.60;99669.66;6234200;28;19921;-70
2022/07/23 13:16:10;;;;;;;;;;;;;;;39.15;17.64;99673.03;6235557;28;19921;-70
2022/07/23 13:19:11;;;;;;;;;;;;;;;39.27;17.71;99657.88;6251779;28;19921;-70
2022/07/23 13:22:11;;;;;;;;;;;;;;;39.32;19.45;99647.97;6252056;28;19921;-77
2022/07/23 13:25:12;;;;;;;;;;;;;;;39.33;17.99;99649.59;6252135;28;19956;-77
2022/07/23 13:28:14;;;;;;;;;;;;;;;39.53;17.33;99643.88;6233875;28;19921;-70
2022/07/23 13:31:15;;;;;;;;;;;;;;;39.62;18.70;99647.56;6231056;28;19922;-77
2022/07/23 13:34:16;;;;;;;;;;;;;;;39.42;17.40;99643.22;6226956;28;19972;-76
2022/07/23 13:37:19;;;;;;;;;;;;;;;39.23;18.01;99650.56;6225533;28;19925;-76
2022/07/23 13:40:20;;;;;;;;;;;;;;;39.18;18.19;99643.25;6225646;28;19921;-69
2022/07/23 13:43:22;;;;;;;;;;;;;;;39.06;17.41;99638.25;6226431;28;19975;-70
2022/07/23 13:46:23;;;;;;;;;;;;;;;38.75;17.17;99645.13;6226489;28;19921;-70
2022/07/23 13:49:24;;;;;;;;;;;;;;;38.73;17.32;99637.25;6225275;28;20395;-70
2022/07/23 13:52:24;;;;;;;;;;;;;;;38.63;17.92;99635.47;6208952;28;20300;-70
2022/07/23 13:55:25;;;;;;;;;;;;;;;38.81;16.18;99624.88;6226235;28;19921;-76
2022/07/23 13:58:28;;;;;;;;;;;;;;;38.68;17.10;99626.41;6226320;28;19921;-77
2022/07/23 14:01:29;;;;;;;;;;;;;;;38.54;17.26;99628.22;6225070;28;19987;-77
2022/07/23 14:04:31;;;;;;;;;;;;;;;38.58;16.54;99630.06;6226132;28;19921;-70
2022/07/23 14:07:33;;;;;;;;;;;;;;;38.77;16.54;99610.22;6224758;28;19921;-70
2022/07/23 14:10:33;;;;;;;;;;;;;;;38.75;16.46;99620.59;6225893;28;19929;-69
2022/07/23 14:13:34;;;;;;;;;;;;;;;38.67;16.17;99605.69;6224883;28;19925;-77
2022/07/23 14:16:35;;;;;;;;;;;;;;;38.52;16.61;99614.06;6246063;28;19927;-77
2022/07/23 14:19:36;;;;;;;;;;;;;;;38.58;17.19;99604.72;6216652;28;19927;-77
2022/07/23 14:22:37;;;;;;;;;;;;;;;38.43;16.63;99597.50;6250406;28;19921;-78
2022/07/23 14:25:38;;;;;;;;;;;;;;;38.58;16.30;99593.81;6232890;28;20379;-77
2022/07/23 14:28:42;;;;;;;;;;;;;;;38.56;16.10;99580.47;6232625;28;19928;-70
2022/07/23 14:31:42;;;;;;;;;;;;;;;38.49;16.88;99582.72;6250080;28;20372;-77
2022/07/23 14:34:43;;;;;;;;;;;;;;;38.13;16.99;99587.75;6232161;28;19928;-71
2022/07/23 14:37:43;;;;;;;;;;;;;;;38.25;16.71;99586.25;6232234;28;19921;-77
2022/07/23 14:40:44;;;;;;;;;;;;;;;38.35;17.32;99584.53;6232223;28;19992;-71
2022/07/23 14:43:45;;;;;;;;;;;;;;;38.16;17.04;99577.09;6199369;28;19975;-76
2022/07/23 14:46:45;;;;;;;;;;;;;;;38.14;16.29;99576.56;6231978;28;19921;-70
2022/07/23 14:49:46;;;;;;;;;;;;;;;38.13;15.80;99566.75;6232100;28;19956;-70
2022/07/23 14:52:46;;;;;;;;;;;;;;;38.17;16.55;99565.09;6249540;28;19921;-76
2022/07/23 14:55:47;;;;;;;;;;;;;;;38.05;15.11;99560.06;6231727;28;19964;-76
2022/07/23 14:58:48;;;;;;;;;;;;;;;38.20;16.09;99558.25;6249495;28;19925;-71
2022/07/23 15:01:49;;;;;;;;;;;;;;;38.23;16.06;99550.31;6215297;28;19932;-70
2022/07/23 15:04:49;;;;;;;;;;;;;;;38.28;15.86;99549.44;6249240;28;19970;-77
2022/07/23 15:07:52;;;;;;;;;;;;;;;38.24;15.77;99546.50;6249153;28;19921;-77
2022/07/23 15:10:53;;;;;;;;;;;;;;;38.33;15.06;99534.97;6231359;28;19955;-77
2022/07/23 15:13:54;;;;;;;;;;;;;;;38.27;16.21;99534.22;6214829;28;19928;-77
2022/07/23 15:16:55;;;;;;;;;;;;;;;38.12;16.38;99529.75;6223173;28;19926;-77
2022/07/23 15:19:56;;;;;;;;;;;;;;;38.04;17.13;99528.47;6224511;28;19921;-77
2022/07/23 15:22:57;;;;;;;;;;;;;;;38.03;15.86;99521.38;6190587;28;19953;-77
2022/07/23 15:25:58;;;;;;;;;;;;;;;37.95;17.77;99516.56;6206408;28;20390;-76
2022/07/23 15:28:59;;;;;;;;;;;;;;;37.94;17.83;99517.66;6222607;28;19922;-76
2022/07/23 15:31:59;;;;;;;;;;;;;;;37.90;17.34;99519.31;6224137;28;19921;-77
2022/07/23 15:35:00;;;;;;;;;;;;;;;37.97;17.49;99506.19;6222858;28;19927;-70
2022/07/23 15:38:01;;;;;;;;;;;;;;;37.95;16.76;99516.56;6224060;28;19921;-70
2022/07/23 15:41:01;;;;;;;;;;;;;;;37.93;17.05;99507.88;6224138;28;20375;-77
2022/07/23 15:44:03;;;;;;;;;;;;;;;37.82;17.22;99509.06;6223763;28;19928;-77
2022/07/23 15:47:03;;;;;;;;;;;;;;;37.86;16.99;99500.03;6206378;28;20398;-77
2022/07/23 15:50:13;;;;;;;;;;;;;;;37.72;16.69;99504.53;6369354;27;19919;-75
2022/07/23 15:53:14;;;;;;;;;;;;;;;37.75;17.77;99495.00;6369501;28;19923;-76
2022/07/23 15:56:15;;;;;;;;;;;;;;;37.94;17.85;99495.06;6333883;28;20431;-76